sensor_id;sensor_type;location;lat;lon;timestamp;P1;durP1;ratioP1;P2;durP2;ratioP2
65924;SDS011;66010;52.084;5.412;2023-04-25T00:01:49;6.05;;;1.70;;
65924;SDS011;66010;52.084;5.412;2023-04-25T00:04:17;7.72;;;1.75;;
65924;SDS011;66010;52.084;5.412;2023-04-25T00:06:44;6.47;;;1.70;;
65924;SDS011;66010;52.084;5.412;2023-04-25T00:09:11;5.93;;;1.88;;
65924;SDS011;66010;52.084;5.412;2023-04-25T00:11:37;6.82;;;1.58;;
65924;SDS011;66010;52.084;5.412;2023-04-25T00:14:04;6.22;;;1.58;;
65924;SDS011;66010;52.084;5.412;2023-04-25T00:16:30;8.18;;;1.90;;
65924;SDS011;66010;52.084;5.412;2023-04-25T00:19:00;6.53;;;1.52;;
65924;SDS011;66010;52.084;5.412;2023-04-25T00:21:27;9.10;;;1.70;;
65924;SDS011;66010;52.084;5.412;2023-04-25T00:23:54;8.75;;;1.70;;
65924;SDS011;66010;52.084;5.412;2023-04-25T00:26:21;5.50;;;1.50;;
65924;SDS011;66010;52.084;5.412;2023-04-25T00:28:47;8.70;;;2.00;;
65924;SDS011;66010;52.084;5.412;2023-04-25T00:31:14;8.00;;;2.00;;
65924;SDS011;66010;52.084;5.412;2023-04-25T00:33:41;8.57;;;1.90;;
65924;SDS011;66010;52.084;5.412;2023-04-25T00:36:07;7.70;;;1.95;;
65924;SDS011;66010;52.084;5.412;2023-04-25T00:38:34;8.45;;;1.85;;
65924;SDS011;66010;52.084;5.412;2023-04-25T00:41:00;9.20;;;2.20;;
65924;SDS011;66010;52.084;5.412;2023-04-25T00:43:27;7.43;;;2.00;;
65924;SDS011;66010;52.084;5.412;2023-04-25T00:45:54;7.07;;;1.85;;
65924;SDS011;66010;52.084;5.412;2023-04-25T00:48:23;9.13;;;2.00;;
65924;SDS011;66010;52.084;5.412;2023-04-25T00:50:55;8.68;;;2.17;;
65924;SDS011;66010;52.084;5.412;2023-04-25T00:53:23;8.80;;;2.10;;
65924;SDS011;66010;52.084;5.412;2023-04-25T00:55:50;9.93;;;2.08;;
65924;SDS011;66010;52.084;5.412;2023-04-25T00:58:17;9.98;;;2.00;;
65924;SDS011;66010;52.084;5.412;2023-04-25T01:00:45;8.35;;;2.03;;
65924;SDS011;66010;52.084;5.412;2023-04-25T01:03:13;8.30;;;2.10;;
65924;SDS011;66010;52.084;5.412;2023-04-25T01:05:42;8.52;;;2.47;;
65924;SDS011;66010;52.084;5.412;2023-04-25T01:08:09;8.93;;;2.05;;
65924;SDS011;66010;52.084;5.412;2023-04-25T01:10:36;8.57;;;2.10;;
65924;SDS011;66010;52.084;5.412;2023-04-25T01:13:03;8.30;;;2.42;;
65924;SDS011;66010;52.084;5.412;2023-04-25T01:15:32;10.27;;;2.20;;
65924;SDS011;66010;52.084;5.412;2023-04-25T01:17:58;8.35;;;2.08;;
65924;SDS011;66010;52.084;5.412;2023-04-25T01:20:27;8.48;;;2.15;;
65924;SDS011;66010;52.084;5.412;2023-04-25T01:22:55;8.15;;;1.85;;
65924;SDS011;66010;52.084;5.412;2023-04-25T01:25:22;7.75;;;2.15;;
65924;SDS011;66010;52.084;5.412;2023-04-25T01:27:48;8.20;;;2.10;;
65924;SDS011;66010;52.084;5.412;2023-04-25T01:30:15;9.38;;;1.83;;
65924;SDS011;66010;52.084;5.412;2023-04-25T01:32:42;8.90;;;1.98;;
65924;SDS011;66010;52.084;5.412;2023-04-25T01:35:10;10.60;;;2.22;;
65924;SDS011;66010;52.084;5.412;2023-04-25T01:40:03;9.90;;;2.33;;
65924;SDS011;66010;52.084;5.412;2023-04-25T01:42:32;10.32;;;2.15;;
65924;SDS011;66010;52.084;5.412;2023-04-25T01:45:00;8.85;;;2.00;;
65924;SDS011;66010;52.084;5.412;2023-04-25T01:47:26;9.43;;;2.17;;
65924;SDS011;66010;52.084;5.412;2023-04-25T01:49:53;8.65;;;2.20;;
65924;SDS011;66010;52.084;5.412;2023-04-25T01:52:20;7.25;;;2.47;;
65924;SDS011;66010;52.084;5.412;2023-04-25T01:54:47;8.45;;;1.85;;
65924;SDS011;66010;52.084;5.412;2023-04-25T01:57:14;8.48;;;2.40;;
65924;SDS011;66010;52.084;5.412;2023-04-25T01:59:43;9.63;;;2.10;;
65924;SDS011;66010;52.084;5.412;2023-04-25T02:02:20;9.50;;;2.13;;
65924;SDS011;66010;52.084;5.412;2023-04-25T02:04:46;10.20;;;2.30;;
65924;SDS011;66010;52.084;5.412;2023-04-25T02:07:13;9.30;;;2.30;;
65924;SDS011;66010;52.084;5.412;2023-04-25T02:09:49;8.73;;;2.28;;
65924;SDS011;66010;52.084;5.412;2023-04-25T02:12:17;8.32;;;2.20;;
65924;SDS011;66010;52.084;5.412;2023-04-25T02:15:03;9.20;;;2.20;;
65924;SDS011;66010;52.084;5.412;2023-04-25T02:17:38;6.40;;;2.08;;
65924;SDS011;66010;52.084;5.412;2023-04-25T02:20:05;8.48;;;2.22;;
65924;SDS011;66010;52.084;5.412;2023-04-25T02:22:33;7.68;;;2.10;;
65924;SDS011;66010;52.084;5.412;2023-04-25T02:25:04;7.72;;;2.33;;
65924;SDS011;66010;52.084;5.412;2023-04-25T02:27:31;11.55;;;2.25;;
65924;SDS011;66010;52.084;5.412;2023-04-25T02:29:57;7.25;;;2.28;;
65924;SDS011;66010;52.084;5.412;2023-04-25T02:32:24;9.18;;;2.33;;
65924;SDS011;66010;52.084;5.412;2023-04-25T02:34:51;8.43;;;2.35;;
65924;SDS011;66010;52.084;5.412;2023-04-25T02:39:45;8.00;;;2.15;;
65924;SDS011;66010;52.084;5.412;2023-04-25T02:42:11;10.20;;;2.15;;
65924;SDS011;66010;52.084;5.412;2023-04-25T02:44:38;10.82;;;2.10;;
65924;SDS011;66010;52.084;5.412;2023-04-25T02:47:04;7.75;;;2.10;;
65924;SDS011;66010;52.084;5.412;2023-04-25T02:49:31;9.70;;;2.40;;
65924;SDS011;66010;52.084;5.412;2023-04-25T02:51:57;10.27;;;2.30;;
65924;SDS011;66010;52.084;5.412;2023-04-25T02:54:24;6.75;;;1.80;;
65924;SDS011;66010;52.084;5.412;2023-04-25T02:56:50;7.18;;;2.03;;
65924;SDS011;66010;52.084;5.412;2023-04-25T02:59:22;10.60;;;2.55;;
65924;SDS011;66010;52.084;5.412;2023-04-25T03:01:49;6.97;;;2.13;;
65924;SDS011;66010;52.084;5.412;2023-04-25T03:04:16;9.05;;;1.90;;
65924;SDS011;66010;52.084;5.412;2023-04-25T03:06:42;10.48;;;2.42;;
65924;SDS011;66010;52.084;5.412;2023-04-25T03:09:09;8.85;;;1.80;;
65924;SDS011;66010;52.084;5.412;2023-04-25T03:11:36;9.38;;;2.20;;
65924;SDS011;66010;52.084;5.412;2023-04-25T03:14:03;8.88;;;2.20;;
65924;SDS011;66010;52.084;5.412;2023-04-25T03:16:30;12.68;;;2.15;;
65924;SDS011;66010;52.084;5.412;2023-04-25T03:18:57;11.38;;;2.10;;
65924;SDS011;66010;52.084;5.412;2023-04-25T03:21:23;7.50;;;1.90;;
65924;SDS011;66010;52.084;5.412;2023-04-25T03:23:50;10.00;;;2.22;;
65924;SDS011;66010;52.084;5.412;2023-04-25T03:26:17;8.02;;;2.30;;
65924;SDS011;66010;52.084;5.412;2023-04-25T03:28:43;7.80;;;2.20;;
65924;SDS011;66010;52.084;5.412;2023-04-25T03:31:11;10.10;;;2.47;;
65924;SDS011;66010;52.084;5.412;2023-04-25T03:33:38;11.65;;;2.28;;
65924;SDS011;66010;52.084;5.412;2023-04-25T03:36:05;9.90;;;2.30;;
65924;SDS011;66010;52.084;5.412;2023-04-25T03:38:31;8.27;;;2.10;;
65924;SDS011;66010;52.084;5.412;2023-04-25T03:40:58;8.23;;;2.35;;
65924;SDS011;66010;52.084;5.412;2023-04-25T03:43:35;8.02;;;2.03;;
65924;SDS011;66010;52.084;5.412;2023-04-25T03:46:06;10.90;;;2.20;;
65924;SDS011;66010;52.084;5.412;2023-04-25T03:48:32;7.90;;;2.03;;
65924;SDS011;66010;52.084;5.412;2023-04-25T03:50:59;6.90;;;1.95;;
65924;SDS011;66010;52.084;5.412;2023-04-25T03:53:26;7.60;;;2.10;;
65924;SDS011;66010;52.084;5.412;2023-04-25T03:56:21;9.32;;;2.22;;
65924;SDS011;66010;52.084;5.412;2023-04-25T03:58:55;6.55;;;2.17;;
65924;SDS011;66010;52.084;5.412;2023-04-25T04:01:24;10.30;;;2.10;;
65924;SDS011;66010;52.084;5.412;2023-04-25T04:03:51;8.95;;;2.13;;
65924;SDS011;66010;52.084;5.412;2023-04-25T04:06:18;7.70;;;2.00;;
65924;SDS011;66010;52.084;5.412;2023-04-25T04:08:51;9.23;;;2.25;;
65924;SDS011;66010;52.084;5.412;2023-04-25T04:11:18;9.80;;;2.30;;
65924;SDS011;66010;52.084;5.412;2023-04-25T04:13:44;7.25;;;2.00;;
65924;SDS011;66010;52.084;5.412;2023-04-25T04:16:11;9.95;;;2.05;;
65924;SDS011;66010;52.084;5.412;2023-04-25T04:18:38;8.98;;;2.03;;
65924;SDS011;66010;52.084;5.412;2023-04-25T04:21:04;8.40;;;1.90;;
65924;SDS011;66010;52.084;5.412;2023-04-25T04:23:34;5.93;;;1.67;;
65924;SDS011;66010;52.084;5.412;2023-04-25T04:26:03;7.28;;;1.70;;
65924;SDS011;66010;52.084;5.412;2023-04-25T04:28:56;7.32;;;1.90;;
65924;SDS011;66010;52.084;5.412;2023-04-25T04:31:42;8.73;;;1.83;;
65924;SDS011;66010;52.084;5.412;2023-04-25T04:36:37;7.15;;;1.80;;
65924;SDS011;66010;52.084;5.412;2023-04-25T04:39:05;8.27;;;2.20;;
65924;SDS011;66010;52.084;5.412;2023-04-25T04:41:40;7.60;;;2.10;;
65924;SDS011;66010;52.084;5.412;2023-04-25T04:44:10;8.57;;;1.80;;
65924;SDS011;66010;52.084;5.412;2023-04-25T04:47:05;6.15;;;1.77;;
65924;SDS011;66010;52.084;5.412;2023-04-25T04:49:55;7.18;;;1.83;;
65924;SDS011;66010;52.084;5.412;2023-04-25T04:52:41;9.55;;;1.90;;
65924;SDS011;66010;52.084;5.412;2023-04-25T04:55:40;7.53;;;1.80;;
65924;SDS011;66010;52.084;5.412;2023-04-25T04:58:21;7.13;;;1.85;;
65924;SDS011;66010;52.084;5.412;2023-04-25T05:00:57;6.40;;;1.52;;
65924;SDS011;66010;52.084;5.412;2023-04-25T05:03:42;6.47;;;1.85;;
65924;SDS011;66010;52.084;5.412;2023-04-25T05:06:21;9.77;;;1.73;;
65924;SDS011;66010;52.084;5.412;2023-04-25T05:09:13;7.03;;;1.80;;
65924;SDS011;66010;52.084;5.412;2023-04-25T05:12:13;7.78;;;1.70;;
65924;SDS011;66010;52.084;5.412;2023-04-25T05:14:58;7.53;;;1.63;;
65924;SDS011;66010;52.084;5.412;2023-04-25T05:17:33;8.57;;;1.65;;
65924;SDS011;66010;52.084;5.412;2023-04-25T05:20:10;9.50;;;1.85;;
65924;SDS011;66010;52.084;5.412;2023-04-25T05:23:01;8.40;;;1.80;;
65924;SDS011;66010;52.084;5.412;2023-04-25T05:26:00;8.88;;;1.80;;
65924;SDS011;66010;52.084;5.412;2023-04-25T05:28:44;10.65;;;1.58;;
65924;SDS011;66010;52.084;5.412;2023-04-25T05:31:29;7.63;;;1.90;;
65924;SDS011;66010;52.084;5.412;2023-04-25T05:34:06;6.00;;;1.42;;
65924;SDS011;66010;52.084;5.412;2023-04-25T05:36:53;8.40;;;1.60;;
65924;SDS011;66010;52.084;5.412;2023-04-25T05:39:19;5.75;;;1.40;;
65924;SDS011;66010;52.084;5.412;2023-04-25T05:42:04;7.90;;;1.70;;
65924;SDS011;66010;52.084;5.412;2023-04-25T05:44:52;7.68;;;1.77;;
65924;SDS011;66010;52.084;5.412;2023-04-25T05:47:41;5.22;;;1.52;;
65924;SDS011;66010;52.084;5.412;2023-04-25T05:50:19;7.00;;;1.55;;
65924;SDS011;66010;52.084;5.412;2023-04-25T05:52:54;5.40;;;1.38;;
65924;SDS011;66010;52.084;5.412;2023-04-25T05:55:40;6.28;;;1.67;;
65924;SDS011;66010;52.084;5.412;2023-04-25T05:58:20;6.72;;;1.60;;
65924;SDS011;66010;52.084;5.412;2023-04-25T06:00:47;3.67;;;1.27;;
65924;SDS011;66010;52.084;5.412;2023-04-25T06:03:13;4.68;;;1.33;;
65924;SDS011;66010;52.084;5.412;2023-04-25T06:05:46;13.02;;;1.73;;
65924;SDS011;66010;52.084;5.412;2023-04-25T06:08:13;7.53;;;1.55;;
65924;SDS011;66010;52.084;5.412;2023-04-25T06:10:39;5.47;;;1.42;;
65924;SDS011;66010;52.084;5.412;2023-04-25T06:13:06;5.70;;;1.42;;
65924;SDS011;66010;52.084;5.412;2023-04-25T06:15:34;5.47;;;1.45;;
65924;SDS011;66010;52.084;5.412;2023-04-25T06:18:01;6.40;;;1.60;;
65924;SDS011;66010;52.084;5.412;2023-04-25T06:20:27;4.82;;;1.33;;
65924;SDS011;66010;52.084;5.412;2023-04-25T06:22:57;7.93;;;1.60;;
65924;SDS011;66010;52.084;5.412;2023-04-25T06:25:56;7.45;;;1.55;;
65924;SDS011;66010;52.084;5.412;2023-04-25T06:28:23;5.40;;;1.30;;
65924;SDS011;66010;52.084;5.412;2023-04-25T06:30:50;6.25;;;1.60;;
65924;SDS011;66010;52.084;5.412;2023-04-25T06:33:18;4.50;;;1.33;;
65924;SDS011;66010;52.084;5.412;2023-04-25T06:35:47;5.53;;;1.50;;
65924;SDS011;66010;52.084;5.412;2023-04-25T06:38:17;5.53;;;1.30;;
65924;SDS011;66010;52.084;5.412;2023-04-25T06:40:47;5.47;;;1.35;;
65924;SDS011;66010;52.084;5.412;2023-04-25T06:46:00;4.50;;;1.20;;
65924;SDS011;66010;52.084;5.412;2023-04-25T06:48:28;5.70;;;1.58;;
65924;SDS011;66010;52.084;5.412;2023-04-25T06:50:55;4.60;;;1.30;;
65924;SDS011;66010;52.084;5.412;2023-04-25T06:53:23;6.85;;;1.50;;
65924;SDS011;66010;52.084;5.412;2023-04-25T06:55:56;8.90;;;1.50;;
65924;SDS011;66010;52.084;5.412;2023-04-25T06:58:25;7.53;;;1.48;;
65924;SDS011;66010;52.084;5.412;2023-04-25T07:00:52;6.10;;;1.40;;
65924;SDS011;66010;52.084;5.412;2023-04-25T07:03:21;8.07;;;1.40;;
65924;SDS011;66010;52.084;5.412;2023-04-25T07:05:49;5.68;;;1.10;;
65924;SDS011;66010;52.084;5.412;2023-04-25T07:08:17;5.43;;;1.10;;
65924;SDS011;66010;52.084;5.412;2023-04-25T07:10:43;8.82;;;1.10;;
65924;SDS011;66010;52.084;5.412;2023-04-25T07:13:15;5.30;;;1.42;;
65924;SDS011;66010;52.084;5.412;2023-04-25T07:15:41;5.03;;;1.20;;
65924;SDS011;66010;52.084;5.412;2023-04-25T07:18:08;5.53;;;1.35;;
65924;SDS011;66010;52.084;5.412;2023-04-25T07:20:35;6.13;;;1.10;;
65924;SDS011;66010;52.084;5.412;2023-04-25T07:23:02;7.18;;;1.38;;
65924;SDS011;66010;52.084;5.412;2023-04-25T07:25:28;5.03;;;1.17;;
65924;SDS011;66010;52.084;5.412;2023-04-25T07:27:56;6.22;;;1.40;;
65924;SDS011;66010;52.084;5.412;2023-04-25T07:30:23;6.25;;;1.40;;
65924;SDS011;66010;52.084;5.412;2023-04-25T07:32:50;5.78;;;1.30;;
65924;SDS011;66010;52.084;5.412;2023-04-25T07:35:17;9.27;;;1.50;;
65924;SDS011;66010;52.084;5.412;2023-04-25T07:37:43;6.55;;;1.25;;
65924;SDS011;66010;52.084;5.412;2023-04-25T07:40:14;4.93;;;1.10;;
65924;SDS011;66010;52.084;5.412;2023-04-25T07:42:49;16.90;;;1.85;;
65924;SDS011;66010;52.084;5.412;2023-04-25T07:45:22;15.60;;;1.50;;
65924;SDS011;66010;52.084;5.412;2023-04-25T07:47:50;10.27;;;1.30;;
65924;SDS011;66010;52.084;5.412;2023-04-25T07:50:17;10.30;;;1.48;;
65924;SDS011;66010;52.084;5.412;2023-04-25T07:52:45;13.25;;;1.33;;
65924;SDS011;66010;52.084;5.412;2023-04-25T07:55:19;6.80;;;1.40;;
65924;SDS011;66010;52.084;5.412;2023-04-25T07:58:12;6.50;;;1.40;;
65924;SDS011;66010;52.084;5.412;2023-04-25T08:00:41;7.10;;;1.33;;
65924;SDS011;66010;52.084;5.412;2023-04-25T08:03:24;6.47;;;1.40;;
65924;SDS011;66010;52.084;5.412;2023-04-25T08:05:52;6.30;;;1.42;;
65924;SDS011;66010;52.084;5.412;2023-04-25T08:08:19;7.50;;;1.30;;
65924;SDS011;66010;52.084;5.412;2023-04-25T08:10:46;8.32;;;1.58;;
65924;SDS011;66010;52.084;5.412;2023-04-25T08:13:15;9.82;;;1.55;;
65924;SDS011;66010;52.084;5.412;2023-04-25T08:15:43;7.57;;;1.30;;
65924;SDS011;66010;52.084;5.412;2023-04-25T08:18:10;6.68;;;1.48;;
65924;SDS011;66010;52.084;5.412;2023-04-25T08:20:36;6.00;;;1.30;;
65924;SDS011;66010;52.084;5.412;2023-04-25T08:23:05;6.13;;;1.35;;
65924;SDS011;66010;52.084;5.412;2023-04-25T08:26:01;3.95;;;1.38;;
65924;SDS011;66010;52.084;5.412;2023-04-25T08:28:30;6.35;;;1.38;;
65924;SDS011;66010;52.084;5.412;2023-04-25T08:30:59;8.02;;;1.42;;
65924;SDS011;66010;52.084;5.412;2023-04-25T08:33:33;7.30;;;1.40;;
65924;SDS011;66010;52.084;5.412;2023-04-25T08:36:17;5.90;;;1.25;;
65924;SDS011;66010;52.084;5.412;2023-04-25T08:39:03;5.50;;;1.20;;
65924;SDS011;66010;52.084;5.412;2023-04-25T08:41:36;5.55;;;1.08;;
65924;SDS011;66010;52.084;5.412;2023-04-25T08:44:05;4.80;;;1.30;;
65924;SDS011;66010;52.084;5.412;2023-04-25T08:46:31;5.47;;;1.35;;
65924;SDS011;66010;52.084;5.412;2023-04-25T08:49:16;5.85;;;1.20;;
65924;SDS011;66010;52.084;5.412;2023-04-25T08:51:46;4.50;;;1.05;;
65924;SDS011;66010;52.084;5.412;2023-04-25T08:54:15;2.92;;;1.02;;
65924;SDS011;66010;52.084;5.412;2023-04-25T08:57:01;5.00;;;1.02;;
65924;SDS011;66010;52.084;5.412;2023-04-25T09:01:55;6.82;;;1.10;;
65924;SDS011;66010;52.084;5.412;2023-04-25T09:04:22;4.80;;;0.98;;
65924;SDS011;66010;52.084;5.412;2023-04-25T09:06:48;5.65;;;1.10;;
65924;SDS011;66010;52.084;5.412;2023-04-25T09:09:15;4.15;;;1.17;;
65924;SDS011;66010;52.084;5.412;2023-04-25T09:11:43;6.25;;;1.30;;
65924;SDS011;66010;52.084;5.412;2023-04-25T09:14:12;4.82;;;1.20;;
65924;SDS011;66010;52.084;5.412;2023-04-25T09:19:39;3.92;;;1.17;;
65924;SDS011;66010;52.084;5.412;2023-04-25T09:22:14;5.93;;;1.08;;
65924;SDS011;66010;52.084;5.412;2023-04-25T09:24:45;4.05;;;1.10;;
65924;SDS011;66010;52.084;5.412;2023-04-25T09:27:19;13.23;;;1.25;;
65924;SDS011;66010;52.084;5.412;2023-04-25T09:29:57;7.72;;;1.10;;
65924;SDS011;66010;52.084;5.412;2023-04-25T09:32:25;6.30;;;0.90;;
65924;SDS011;66010;52.084;5.412;2023-04-25T09:34:56;3.28;;;0.90;;
65924;SDS011;66010;52.084;5.412;2023-04-25T09:37:23;6.55;;;0.90;;
65924;SDS011;66010;52.084;5.412;2023-04-25T09:40:09;6.05;;;1.00;;
65924;SDS011;66010;52.084;5.412;2023-04-25T09:42:57;5.45;;;1.15;;
65924;SDS011;66010;52.084;5.412;2023-04-25T09:45:25;6.72;;;1.00;;
65924;SDS011;66010;52.084;5.412;2023-04-25T09:47:55;4.63;;;1.30;;
65924;SDS011;66010;52.084;5.412;2023-04-25T09:50:27;3.72;;;1.02;;
65924;SDS011;66010;52.084;5.412;2023-04-25T09:53:03;4.63;;;1.10;;
65924;SDS011;66010;52.084;5.412;2023-04-25T09:55:47;6.18;;;1.10;;
65924;SDS011;66010;52.084;5.412;2023-04-25T09:58:14;5.20;;;1.23;;
65924;SDS011;66010;52.084;5.412;2023-04-25T10:00:41;7.68;;;1.35;;
65924;SDS011;66010;52.084;5.412;2023-04-25T10:03:21;3.70;;;0.90;;
65924;SDS011;66010;52.084;5.412;2023-04-25T10:06:00;3.28;;;0.90;;
65924;SDS011;66010;52.084;5.412;2023-04-25T10:08:34;3.92;;;0.90;;
65924;SDS011;66010;52.084;5.412;2023-04-25T10:11:02;5.55;;;1.02;;
65924;SDS011;66010;52.084;5.412;2023-04-25T10:13:29;3.83;;;1.05;;
65924;SDS011;66010;52.084;5.412;2023-04-25T10:15:57;4.82;;;0.95;;
65924;SDS011;66010;52.084;5.412;2023-04-25T10:18:25;4.72;;;1.00;;
65924;SDS011;66010;52.084;5.412;2023-04-25T10:20:54;4.30;;;1.17;;
65924;SDS011;66010;52.084;5.412;2023-04-25T10:23:21;10.38;;;1.45;;
65924;SDS011;66010;52.084;5.412;2023-04-25T10:25:47;4.10;;;1.00;;
65924;SDS011;66010;52.084;5.412;2023-04-25T10:28:14;5.88;;;1.08;;
65924;SDS011;66010;52.084;5.412;2023-04-25T10:30:56;6.90;;;1.25;;
65924;SDS011;66010;52.084;5.412;2023-04-25T10:33:30;4.18;;;1.17;;
65924;SDS011;66010;52.084;5.412;2023-04-25T10:35:58;5.43;;;1.20;;
65924;SDS011;66010;52.084;5.412;2023-04-25T10:38:25;6.00;;;1.77;;
65924;SDS011;66010;52.084;5.412;2023-04-25T10:41:05;5.53;;;1.50;;
65924;SDS011;66010;52.084;5.412;2023-04-25T10:43:39;4.57;;;1.80;;
65924;SDS011;66010;52.084;5.412;2023-04-25T10:46:15;4.82;;;1.70;;
65924;SDS011;66010;52.084;5.412;2023-04-25T10:48:46;6.82;;;1.83;;
65924;SDS011;66010;52.084;5.412;2023-04-25T10:51:30;4.68;;;1.50;;
65924;SDS011;66010;52.084;5.412;2023-04-25T10:54:18;4.85;;;1.50;;
65924;SDS011;66010;52.084;5.412;2023-04-25T10:56:48;4.05;;;1.60;;
65924;SDS011;66010;52.084;5.412;2023-04-25T10:59:15;4.55;;;1.65;;
65924;SDS011;66010;52.084;5.412;2023-04-25T11:01:43;6.57;;;1.65;;
65924;SDS011;66010;52.084;5.412;2023-04-25T11:04:23;4.95;;;1.60;;
65924;SDS011;66010;52.084;5.412;2023-04-25T11:07:00;5.10;;;1.60;;
65924;SDS011;66010;52.084;5.412;2023-04-25T11:09:33;5.03;;;1.70;;
65924;SDS011;66010;52.084;5.412;2023-04-25T11:11:59;4.40;;;1.67;;
65924;SDS011;66010;52.084;5.412;2023-04-25T11:14:26;4.75;;;1.63;;
65924;SDS011;66010;52.084;5.412;2023-04-25T11:16:53;5.57;;;1.85;;
65924;SDS011;66010;52.084;5.412;2023-04-25T11:19:25;4.57;;;1.50;;
65924;SDS011;66010;52.084;5.412;2023-04-25T11:21:55;5.90;;;1.67;;
65924;SDS011;66010;52.084;5.412;2023-04-25T11:24:28;4.05;;;1.45;;
65924;SDS011;66010;52.084;5.412;2023-04-25T11:26:55;4.47;;;1.60;;
65924;SDS011;66010;52.084;5.412;2023-04-25T11:29:22;4.20;;;1.52;;
65924;SDS011;66010;52.084;5.412;2023-04-25T11:31:49;4.18;;;1.40;;
65924;SDS011;66010;52.084;5.412;2023-04-25T11:34:18;3.05;;;1.25;;
65924;SDS011;66010;52.084;5.412;2023-04-25T11:36:45;3.65;;;1.30;;
65924;SDS011;66010;52.084;5.412;2023-04-25T11:39:12;3.88;;;1.30;;
65924;SDS011;66010;52.084;5.412;2023-04-25T11:41:38;3.55;;;1.42;;
65924;SDS011;66010;52.084;5.412;2023-04-25T11:44:07;4.93;;;1.60;;
65924;SDS011;66010;52.084;5.412;2023-04-25T11:46:34;3.45;;;1.30;;
65924;SDS011;66010;52.084;5.412;2023-04-25T11:49:01;3.53;;;1.30;;
65924;SDS011;66010;52.084;5.412;2023-04-25T11:51:28;2.92;;;1.20;;
65924;SDS011;66010;52.084;5.412;2023-04-25T11:53:54;3.33;;;1.25;;
65924;SDS011;66010;52.084;5.412;2023-04-25T11:56:22;3.42;;;1.20;;
65924;SDS011;66010;52.084;5.412;2023-04-25T12:04:17;3.90;;;1.30;;
65924;SDS011;66010;52.084;5.412;2023-04-25T12:06:46;3.35;;;1.25;;
65924;SDS011;66010;52.084;5.412;2023-04-25T12:09:20;4.28;;;1.40;;
65924;SDS011;66010;52.084;5.412;2023-04-25T12:11:48;3.97;;;1.38;;
65924;SDS011;66010;52.084;5.412;2023-04-25T12:16:45;6.65;;;1.40;;
65924;SDS011;66010;52.084;5.412;2023-04-25T12:19:15;4.75;;;1.40;;
65924;SDS011;66010;52.084;5.412;2023-04-25T12:21:42;5.32;;;1.50;;
65924;SDS011;66010;52.084;5.412;2023-04-25T12:24:23;4.65;;;1.40;;
65924;SDS011;66010;52.084;5.412;2023-04-25T12:26:59;4.18;;;1.13;;
65924;SDS011;66010;52.084;5.412;2023-04-25T12:29:26;3.80;;;1.10;;
65924;SDS011;66010;52.084;5.412;2023-04-25T12:32:00;4.97;;;1.30;;
65924;SDS011;66010;52.084;5.412;2023-04-25T12:34:28;4.22;;;1.17;;
65924;SDS011;66010;52.084;5.412;2023-04-25T12:36:54;4.13;;;1.20;;
65924;SDS011;66010;52.084;5.412;2023-04-25T12:39:22;4.25;;;1.30;;
65924;SDS011;66010;52.084;5.412;2023-04-25T12:41:52;5.28;;;1.50;;
65924;SDS011;66010;52.084;5.412;2023-04-25T12:44:20;3.60;;;1.20;;
65924;SDS011;66010;52.084;5.412;2023-04-25T12:46:47;3.22;;;1.08;;
65924;SDS011;66010;52.084;5.412;2023-04-25T12:49:13;5.72;;;1.10;;
65924;SDS011;66010;52.084;5.412;2023-04-25T12:52:00;5.95;;;1.13;;
65924;SDS011;66010;52.084;5.412;2023-04-25T12:54:26;5.05;;;1.30;;
65924;SDS011;66010;52.084;5.412;2023-04-25T12:56:53;3.20;;;1.10;;
65924;SDS011;66010;52.084;5.412;2023-04-25T12:59:19;5.00;;;1.25;;
65924;SDS011;66010;52.084;5.412;2023-04-25T13:01:47;3.60;;;0.98;;
65924;SDS011;66010;52.084;5.412;2023-04-25T13:04:14;3.05;;;1.20;;
65924;SDS011;66010;52.084;5.412;2023-04-25T13:06:41;5.57;;;1.20;;
65924;SDS011;66010;52.084;5.412;2023-04-25T13:09:08;2.33;;;1.00;;
65924;SDS011;66010;52.084;5.412;2023-04-25T13:11:35;2.92;;;1.08;;
65924;SDS011;66010;52.084;5.412;2023-04-25T13:14:01;2.83;;;1.00;;
65924;SDS011;66010;52.084;5.412;2023-04-25T13:16:28;4.60;;;1.20;;
65924;SDS011;66010;52.084;5.412;2023-04-25T13:18:55;4.85;;;1.10;;
65924;SDS011;66010;52.084;5.412;2023-04-25T13:21:22;5.60;;;1.10;;
65924;SDS011;66010;52.084;5.412;2023-04-25T13:23:49;2.67;;;1.00;;
65924;SDS011;66010;52.084;5.412;2023-04-25T13:26:17;4.38;;;1.00;;
65924;SDS011;66010;52.084;5.412;2023-04-25T13:28:43;2.17;;;1.00;;
65924;SDS011;66010;52.084;5.412;2023-04-25T13:31:10;2.10;;;0.93;;
65924;SDS011;66010;52.084;5.412;2023-04-25T13:33:37;2.92;;;0.90;;
65924;SDS011;66010;52.084;5.412;2023-04-25T13:36:03;3.10;;;1.08;;
65924;SDS011;66010;52.084;5.412;2023-04-25T13:38:30;3.08;;;1.15;;
65924;SDS011;66010;52.084;5.412;2023-04-25T13:40:56;4.13;;;1.02;;
65924;SDS011;66010;52.084;5.412;2023-04-25T13:43:23;2.17;;;1.00;;
65924;SDS011;66010;52.084;5.412;2023-04-25T13:45:50;2.60;;;1.00;;
65924;SDS011;66010;52.084;5.412;2023-04-25T13:48:17;1.95;;;0.90;;
65924;SDS011;66010;52.084;5.412;2023-04-25T13:50:44;2.25;;;0.82;;
65924;SDS011;66010;52.084;5.412;2023-04-25T13:53:11;3.25;;;0.95;;
65924;SDS011;66010;52.084;5.412;2023-04-25T13:55:38;1.65;;;0.90;;
65924;SDS011;66010;52.084;5.412;2023-04-25T13:58:06;2.13;;;0.88;;
65924;SDS011;66010;52.084;5.412;2023-04-25T14:00:37;2.03;;;0.80;;
65924;SDS011;66010;52.084;5.412;2023-04-25T14:03:09;1.65;;;0.70;;
65924;SDS011;66010;52.084;5.412;2023-04-25T14:05:36;3.63;;;1.00;;
65924;SDS011;66010;52.084;5.412;2023-04-25T14:08:07;1.85;;;0.70;;
65924;SDS011;66010;52.084;5.412;2023-04-25T14:10:34;2.65;;;0.70;;
65924;SDS011;66010;52.084;5.412;2023-04-25T14:15:30;2.75;;;0.90;;
65924;SDS011;66010;52.084;5.412;2023-04-25T14:17:57;2.53;;;0.90;;
65924;SDS011;66010;52.084;5.412;2023-04-25T14:20:23;1.98;;;0.80;;
65924;SDS011;66010;52.084;5.412;2023-04-25T14:22:50;3.15;;;0.90;;
65924;SDS011;66010;52.084;5.412;2023-04-25T14:25:18;2.95;;;0.90;;
65924;SDS011;66010;52.084;5.412;2023-04-25T14:27:44;2.20;;;0.80;;
65924;SDS011;66010;52.084;5.412;2023-04-25T14:30:16;2.38;;;0.90;;
65924;SDS011;66010;52.084;5.412;2023-04-25T14:32:43;2.42;;;0.90;;
65924;SDS011;66010;52.084;5.412;2023-04-25T14:35:10;3.17;;;1.00;;
65924;SDS011;66010;52.084;5.412;2023-04-25T14:37:37;3.05;;;1.00;;
65924;SDS011;66010;52.084;5.412;2023-04-25T14:40:03;1.88;;;0.95;;
65924;SDS011;66010;52.084;5.412;2023-04-25T14:42:31;1.92;;;0.80;;
65924;SDS011;66010;52.084;5.412;2023-04-25T14:44:59;1.95;;;0.90;;
65924;SDS011;66010;52.084;5.412;2023-04-25T14:47:25;2.55;;;0.80;;
65924;SDS011;66010;52.084;5.412;2023-04-25T14:49:52;1.95;;;0.82;;
65924;SDS011;66010;52.084;5.412;2023-04-25T14:52:20;1.48;;;0.70;;
65924;SDS011;66010;52.084;5.412;2023-04-25T14:54:47;1.58;;;0.85;;
65924;SDS011;66010;52.084;5.412;2023-04-25T14:57:14;2.90;;;0.90;;
65924;SDS011;66010;52.084;5.412;2023-04-25T14:59:40;2.67;;;0.80;;
65924;SDS011;66010;52.084;5.412;2023-04-25T15:02:07;2.15;;;0.80;;
65924;SDS011;66010;52.084;5.412;2023-04-25T15:04:33;1.30;;;0.80;;
65924;SDS011;66010;52.084;5.412;2023-04-25T15:07:00;2.30;;;0.90;;
65924;SDS011;66010;52.084;5.412;2023-04-25T15:09:27;1.83;;;0.90;;
65924;SDS011;66010;52.084;5.412;2023-04-25T15:11:55;3.58;;;0.88;;
65924;SDS011;66010;52.084;5.412;2023-04-25T15:14:21;2.55;;;1.00;;
65924;SDS011;66010;52.084;5.412;2023-04-25T15:16:48;1.95;;;0.90;;
65924;SDS011;66010;52.084;5.412;2023-04-25T15:19:15;3.05;;;1.08;;
65924;SDS011;66010;52.084;5.412;2023-04-25T15:21:42;3.28;;;0.90;;
65924;SDS011;66010;52.084;5.412;2023-04-25T15:24:08;4.22;;;1.00;;
65924;SDS011;66010;52.084;5.412;2023-04-25T15:26:35;2.58;;;0.93;;
65924;SDS011;66010;52.084;5.412;2023-04-25T15:29:02;2.63;;;0.90;;
65924;SDS011;66010;52.084;5.412;2023-04-25T15:31:31;2.33;;;0.77;;